Time;durP1;ratioP1;P1;durP2;ratioP2;P2;SDS_P1;SDS_P2;PMS_P1;PMS_P2;Temp;Humidity;BMP_temperature;BMP_pressure;BME280_temperature;BME280_humidity;BME280_pressure;Samples;Min_cycle;Max_cycle;Signal;HPM_P1;HPM_P2
2022/06/10 00:03:09;;;;;;;11.88;7.97;;;;;;;16.94;93.96;99227.88;8423459;28;20405;-73
2022/06/10 00:07:10;;;;;;;11.63;6.95;;;;;;;16.92;93.71;99238.31;8425663;28;20044;-73
2022/06/10 00:11:12;;;;;;;16.38;6.93;;;;;;;16.87;94.03;99238.56;8425024;28;20044;-73
2022/06/10 00:15:13;;;;;;;11.18;6.97;;;;;;;16.83;93.95;99227.56;8425023;28;20408;-73
2022/06/10 00:19:14;;;;;;;13.27;6.97;;;;;;;16.80;94.23;99238.38;8424855;28;20048;-73
2022/06/10 00:23:15;;;;;;;9.85;7.15;;;;;;;16.73;94.23;99246.34;8427073;27;20051;-74
2022/06/10 00:27:16;;;;;;;9.55;7.00;;;;;;;16.74;93.95;99250.69;8517293;27;20126;-73
2022/06/10 00:31:18;;;;;;;10.00;6.80;;;;;;;16.73;94.08;99249.09;8504943;27;20047;-73
2022/06/10 00:35:19;;;;;;;10.15;7.30;;;;;;;16.69;94.00;99248.19;8514289;27;20050;-73
2022/06/10 00:39:20;;;;;;;11.32;6.85;;;;;;;16.66;94.25;99248.88;8510366;27;20043;-72
2022/06/10 00:43:25;;;;;;;8.15;6.50;;;;;;;16.61;94.13;99243.66;8516687;27;20051;-72
2022/06/10 00:47:37;;;;;;;8.35;6.07;;;;;;;16.58;93.91;99257.97;8507221;27;20046;-72
2022/06/10 00:51:43;;;;;;;11.15;6.63;;;;;;;16.53;94.39;99260.94;8513342;27;20138;-73
2022/06/10 00:55:45;;;;;;;10.18;6.55;;;;;;;16.51;94.36;99263.19;8497945;27;20096;-72
2022/06/10 01:00:05;;;;;;;12.25;6.68;;;;;;;16.48;94.32;99268.22;8518180;27;20365;-72
2022/06/10 01:04:07;;;;;;;10.27;6.68;;;;;;;16.47;94.11;99274.78;8516304;27;20058;-73
2022/06/10 01:08:11;;;;;;;12.77;7.05;;;;;;;16.46;94.09;99284.09;8511789;27;20050;-73
2022/06/10 01:12:37;;;;;;;20.20;6.65;;;;;;;16.42;94.27;99277.75;8475731;27;20039;-73
2022/06/10 01:16:58;;;;;;;7.20;5.88;;;;;;;16.39;93.96;99283.88;8509529;27;20055;-73
2022/06/10 01:21:36;;;;;;;9.57;6.35;;;;;;;16.33;94.07;99282.53;8384474;28;20565;-73
2022/06/10 01:26:13;;;;;;;7.78;6.50;;;;;;;16.29;94.12;99284.34;8379950;28;20075;-73
2022/06/10 01:30:44;;;;;;;7.10;5.90;;;;;;;16.25;94.33;99283.44;8379896;28;20049;-73
2022/06/10 01:35:20;;;;;;;8.30;6.60;;;;;;;16.15;95.03;99300.25;8352007;28;20052;-74
2022/06/10 01:39:31;;;;;;;11.65;6.50;;;;;;;16.15;95.30;99305.69;8385569;28;20101;-73
2022/06/10 01:43:45;;;;;;;9.30;6.68;;;;;;;16.13;95.32;99313.41;8377257;28;20036;-72
2022/06/10 01:48:14;;;;;;;10.27;6.70;;;;;;;16.14;95.44;99312.28;8380145;28;20045;-72
2022/06/10 01:52:39;;;;;;;14.25;7.45;;;;;;;16.19;95.06;99322.94;8389784;28;20048;-72
2022/06/10 01:56:45;;;;;;;10.27;7.25;;;;;;;16.16;95.34;99323.66;8367307;28;20055;-73
2022/06/10 02:00:48;;;;;;;9.15;7.15;;;;;;;16.15;95.31;99327.50;8421883;28;20098;-71
2022/06/10 02:04:52;;;;;;;13.43;7.40;;;;;;;16.13;95.79;99324.31;8382532;28;20048;-72
2022/06/10 02:08:58;;;;;;;10.98;7.28;;;;;;;16.13;95.83;99329.75;8422004;28;20036;-72
2022/06/10 02:13:03;;;;;;;11.63;7.60;;;;;;;16.12;96.02;99339.09;8422314;28;20083;-73
2022/06/10 02:17:07;;;;;;;12.75;7.38;;;;;;;16.11;96.10;99332.03;8405355;28;20056;-72
2022/06/10 02:21:23;;;;;;;8.75;7.75;;;;;;;16.08;96.22;99337.34;8405939;28;20044;-73
2022/06/10 02:25:53;;;;;;;9.40;7.47;;;;;;;16.11;96.11;99347.59;8393490;28;20483;-73
2022/06/10 02:30:20;;;;;;;8.65;7.30;;;;;;;16.10;95.88;99346.78;8412545;28;20055;-72
2022/06/10 02:34:21;;;;;;;10.73;7.80;;;;;;;16.11;95.97;99353.03;8382780;28;20048;-72
2022/06/10 02:38:47;;;;;;;8.38;7.47;;;;;;;16.07;96.20;99361.09;8376713;28;20052;-73
2022/06/10 02:42:51;;;;;;;8.98;7.97;;;;;;;16.05;96.25;99382.44;8390032;28;20132;-72
2022/06/10 02:47:12;;;;;;;11.52;8.05;;;;;;;16.05;96.27;99383.22;8382938;28;20041;-73
2022/06/10 02:51:15;;;;;;;9.90;7.65;;;;;;;16.06;96.08;99394.91;8386122;28;20057;-73
2022/06/10 02:55:20;;;;;;;11.77;7.25;;;;;;;16.04;96.64;99391.72;8371957;28;20512;-74
2022/06/10 03:04:03;;;;;;;13.80;7.47;;;;;;;16.06;96.67;99405.81;8384483;28;20055;-72
2022/06/10 03:08:10;;;;;;;10.52;7.40;;;;;;;16.07;96.48;99410.13;8361233;28;20041;-73
2022/06/10 03:12:28;;;;;;;10.43;8.10;;;;;;;16.11;96.13;99408.31;8486670;27;20479;-74
2022/06/10 03:16:34;;;;;;;13.77;8.63;;;;;;;16.09;96.35;99421.47;8476327;27;20047;-72
2022/06/10 03:21:13;;;;;;;12.30;8.18;;;;;;;16.15;96.24;99420.13;8466060;27;20350;-72
2022/06/10 03:25:20;;;;;;;10.57;7.80;;;;;;;16.12;96.63;99426.28;8384116;28;20158;-72
2022/06/10 03:29:36;;;;;;;14.00;8.40;;;;;;;16.13;96.57;99432.50;8390546;28;20479;-73
2022/06/10 03:33:43;;;;;;;12.73;8.63;;;;;;;16.16;96.45;99443.53;8361896;28;20156;-73
2022/06/10 03:37:44;;;;;;;11.82;8.77;;;;;;;16.20;96.62;99449.88;8376158;28;20422;-73
2022/06/10 03:42:04;;;;;;;13.40;8.65;;;;;;;16.16;96.79;99454.44;8344675;28;20040;-73
2022/06/10 03:46:08;;;;;;;13.00;8.75;;;;;;;16.17;96.63;99456.03;8392699;28;20474;-72
2022/06/10 03:50:12;;;;;;;10.00;8.57;;;;;;;16.20;96.50;99460.78;8363826;28;20586;-72
2022/06/10 03:54:18;;;;;;;10.32;8.95;;;;;;;16.21;96.73;99467.84;8389705;28;20052;-74
2022/06/10 03:58:19;;;;;;;12.00;8.75;;;;;;;16.27;96.41;99471.94;8399060;27;20112;-72
2022/06/10 04:02:20;;;;;;;13.73;8.15;;;;;;;16.31;95.83;99489.22;8515452;27;20042;-72
2022/06/10 04:06:21;;;;;;;14.35;8.15;;;;;;;16.36;95.97;99490.91;8532474;27;20078;-72
2022/06/10 04:10:27;;;;;;;10.98;8.48;;;;;;;16.41;95.66;99499.69;8532057;27;20073;-72
2022/06/10 04:14:28;;;;;;;10.27;8.27;;;;;;;16.41;94.82;99507.06;8484600;27;20583;-72
2022/06/10 04:18:29;;;;;;;8.20;6.93;;;;;;;16.43;94.08;99513.78;8528679;27;20055;-74
2022/06/10 04:22:30;;;;;;;10.35;6.65;;;;;;;16.46;93.20;99518.53;8508685;27;20108;-72
2022/06/10 04:26:31;;;;;;;8.60;6.80;;;;;;;16.51;92.59;99519.44;8531129;27;20073;-72
2022/06/10 04:30:38;;;;;;;11.43;5.97;;;;;;;16.53;92.17;99533.56;8517596;27;20090;-72
2022/06/10 04:34:39;;;;;;;8.57;5.35;;;;;;;16.62;89.15;99531.53;8526338;27;20057;-73
2022/06/10 04:38:40;;;;;;;7.47;5.20;;;;;;;16.55;88.99;99542.19;8524617;27;20054;-72
2022/06/10 04:42:41;;;;;;;13.52;4.85;;;;;;;16.54;87.60;99551.50;8514339;27;20069;-72
2022/06/10 04:46:43;;;;;;;7.25;5.00;;;;;;;16.54;87.90;99554.25;8520839;27;20151;-73
2022/06/10 04:50:45;;;;;;;6.72;4.10;;;;;;;16.60;87.44;99566.56;8518722;27;20251;-73
2022/06/10 04:54:46;;;;;;;7.57;3.92;;;;;;;16.65;86.99;99552.72;8515413;27;20042;-72
2022/06/10 04:58:47;;;;;;;4.88;3.88;;;;;;;16.66;86.13;99565.19;8507427;27;20458;-72
2022/06/10 05:02:47;;;;;;;7.88;3.70;;;;;;;16.75;83.77;99569.44;8476801;27;20108;-72
2022/06/10 05:06:48;;;;;;;8.23;3.75;;;;;;;16.79;83.79;99580.44;8514487;27;20043;-73
2022/06/10 05:10:50;;;;;;;4.93;3.58;;;;;;;16.86;83.45;99586.16;8509833;27;20070;-72
2022/06/10 05:14:51;;;;;;;7.25;3.47;;;;;;;16.93;83.10;99586.38;8512264;27;20034;-72
2022/06/10 05:18:52;;;;;;;4.45;3.10;;;;;;;16.93;82.10;99594.56;8495154;27;20142;-73
2022/06/10 05:22:53;;;;;;;4.47;2.92;;;;;;;16.97;82.95;99598.22;8522846;27;20035;-72
2022/06/10 05:26:54;;;;;;;7.57;3.50;;;;;;;16.98;82.53;99605.25;8501240;27;20472;-73
2022/06/10 05:30:57;;;;;;;12.88;3.70;;;;;;;17.00;82.36;99616.63;8455048;27;20496;-73
2022/06/10 05:34:58;;;;;;;5.18;3.55;;;;;;;17.01;82.50;99615.50;8517218;27;20054;-73
2022/06/10 05:39:00;;;;;;;5.38;3.85;;;;;;;17.02;82.31;99617.09;8517816;27;20120;-73
2022/06/10 05:43:01;;;;;;;5.05;3.30;;;;;;;17.07;80.68;99619.63;8527183;27;20046;-73
2022/06/10 05:47:05;;;;;;;5.03;3.85;;;;;;;17.14;80.69;99636.19;8505557;27;20049;-73
2022/06/10 05:51:06;;;;;;;5.25;3.13;;;;;;;17.31;80.41;99636.00;8518609;27;20045;-73
2022/06/10 05:55:09;;;;;;;4.30;2.92;;;;;;;17.53;79.72;99642.16;8515575;27;20054;-72
2022/06/10 05:59:18;;;;;;;3.33;2.83;;;;;;;17.74;78.60;99653.78;8470319;27;20496;-72
2022/06/10 06:03:19;;;;;;;3.67;2.42;;;;;;;17.88;77.30;99643.28;8516425;27;20054;-72
2022/06/10 06:07:24;;;;;;;3.88;2.67;;;;;;;18.02;77.58;99641.00;8522683;27;20496;-72
2022/06/10 06:11:25;;;;;;;4.07;2.50;;;;;;;18.12;74.53;99648.72;8526884;27;20557;-73
2022/06/10 06:15:29;;;;;;;4.57;2.38;;;;;;;18.07;74.34;99651.69;8517977;27;20125;-73
2022/06/10 06:19:34;;;;;;;4.97;2.80;;;;;;;18.15;75.05;99656.22;8516950;27;20066;-72
2022/06/10 06:23:35;;;;;;;4.60;3.22;;;;;;;18.31;73.01;99660.97;8524092;27;20118;-73
2022/06/10 06:27:37;;;;;;;4.22;3.13;;;;;;;18.20;73.75;99663.38;8512313;27;20049;-72
2022/06/10 06:31:41;;;;;;;11.60;3.33;;;;;;;18.21;74.54;99675.13;8514915;27;20528;-72
2022/06/10 06:35:48;;;;;;;5.10;2.85;;;;;;;18.41;74.68;99671.41;8462155;27;20043;-73
2022/06/10 06:39:49;;;;;;;3.97;3.38;;;;;;;18.45;74.36;99683.25;8506704;27;20039;-73
2022/06/10 06:43:50;;;;;;;6.95;4.18;;;;;;;18.53;74.14;99685.03;8473643;27;20058;-73
2022/06/10 06:47:53;;;;;;;6.03;3.80;;;;;;;18.66;74.04;99694.84;8472358;27;20031;-72
2022/06/10 06:51:55;;;;;;;5.50;3.72;;;;;;;18.83;74.42;99694.53;8488161;27;20043;-72
2022/06/10 06:55:56;;;;;;;5.55;2.60;;;;;;;18.92;73.29;99706.13;8512330;27;20088;-72
2022/06/10 07:00:05;;;;;;;4.68;3.00;;;;;;;19.09;73.53;99706.97;8482850;27;20035;-72
2022/06/10 07:04:06;;;;;;;5.45;3.97;;;;;;;19.02;72.53;99717.72;8450487;27;20091;-72
2022/06/10 07:08:09;;;;;;;4.63;3.45;;;;;;;19.17;72.51;99708.72;8510603;27;20561;-73
2022/06/10 07:12:10;;;;;;;5.00;3.47;;;;;;;19.15;72.67;99716.50;8477676;27;20405;-73
2022/06/10 07:16:13;;;;;;;5.38;3.53;;;;;;;19.28;72.88;99720.75;8504765;27;20103;-72
2022/06/10 07:20:30;;;;;;;4.75;3.33;;;;;;;19.44;72.49;99718.84;8506227;27;20070;-72
2022/06/10 07:24:31;;;;;;;4.40;3.55;;;;;;;19.59;71.29;99737.25;8521021;27;20051;-72
2022/06/10 07:28:31;;;;;;;9.90;3.97;;;;;;;19.54;71.25;99743.00;8488740;27;20039;-72
2022/06/10 07:32:32;;;;;;;5.43;3.45;;;;;;;19.54;71.35;99745.72;8523087;27;20038;-73
2022/06/10 07:36:34;;;;;;;4.78;3.58;;;;;;;19.56;70.78;99743.44;8524181;27;20046;-72
2022/06/10 07:45:02;;;;;;;7.53;4.20;;;;;;;20.07;69.25;99740.75;8523128;27;20488;-72
2022/06/10 07:49:03;;;;;;;5.80;3.55;;;;;;;20.22;69.01;99743.47;8515763;27;20514;-72
2022/06/10 07:53:04;;;;;;;4.88;3.60;;;;;;;19.93;67.95;99740.44;8517920;27;20051;-73
2022/06/10 07:57:07;;;;;;;4.60;2.72;;;;;;;19.90;69.15;99749.34;8478152;27;20598;-73
2022/06/10 08:01:08;;;;;;;3.30;2.70;;;;;;;19.96;67.25;99756.16;8516716;27;20066;-73
2022/06/10 08:05:12;;;;;;;4.22;2.75;;;;;;;20.09;68.17;99754.91;8520948;27;20130;-74
2022/06/10 08:09:15;;;;;;;9.43;3.42;;;;;;;20.29;66.84;99759.28;8476121;27;20053;-72
2022/06/10 08:13:16;;;;;;;3.88;3.25;;;;;;;20.42;65.74;99755.28;8520308;27;20046;-73
2022/06/10 08:17:17;;;;;;;5.45;3.13;;;;;;;20.53;65.40;99759.06;8519473;27;20058;-74
2022/06/10 08:25:39;;;;;;;5.43;2.50;;;;;;;20.76;62.81;99750.13;8531681;27;20046;-73
2022/06/10 08:29:40;;;;;;;6.68;2.95;;;;;;;21.02;61.58;99753.81;8516980;27;20161;-72
2022/06/10 08:33:43;;;;;;;5.05;2.97;;;;;;;21.13;60.23;99759.53;8512397;27;20419;-73
2022/06/10 08:37:44;;;;;;;5.45;2.75;;;;;;;21.33;60.54;99758.34;8492612;27;20443;-72
2022/06/10 08:42:17;;;;;;;3.70;2.75;;;;;;;21.54;59.96;99762.66;8494694;27;20121;-71
2022/06/10 08:46:28;;;;;;;6.13;3.20;;;;;;;21.67;58.48;99766.81;8512039;27;20054;-72
2022/06/10 08:50:40;;;;;;;6.32;3.17;;;;;;;21.76;58.24;99759.13;8447350;28;20108;-73
2022/06/10 08:55:01;;;;;;;4.90;2.92;;;;;;;21.95;58.77;99772.00;8459589;28;20436;-74
2022/06/10 08:59:09;;;;;;;6.95;3.88;;;;;;;21.79;59.03;99780.34;8456921;28;20040;-73
2022/06/10 09:03:16;;;;;;;6.35;3.80;;;;;;;21.66;59.75;99781.72;8455749;28;20425;-73
2022/06/10 09:07:24;;;;;;;5.88;3.05;;;;;;;21.76;58.18;99786.59;8437108;28;20169;-72
2022/06/10 09:11:51;;;;;;;5.57;3.70;;;;;;;21.91;57.88;99785.69;8426971;28;20499;-72
2022/06/10 09:15:59;;;;;;;4.72;3.22;;;;;;;22.02;55.28;99794.94;8426964;28;20485;-72
2022/06/10 09:20:31;;;;;;;4.43;2.50;;;;;;;21.83;55.04;99781.22;8481394;27;20487;-72
2022/06/10 09:25:04;;;;;;;6.35;2.67;;;;;;;21.54;54.33;99803.88;8496911;27;20427;-72
2022/06/10 09:29:09;;;;;;;3.88;2.70;;;;;;;21.45;54.27;99782.94;8528744;27;20046;-73
2022/06/10 09:33:44;;;;;;;7.68;3.15;;;;;;;21.65;55.71;99782.88;8511219;27;20050;-72
2022/06/10 09:38:03;;;;;;;5.25;2.83;;;;;;;21.71;54.17;99789.66;8509779;27;20072;-72
2022/06/10 09:42:51;;;;;;;4.63;2.72;;;;;;;21.84;54.30;99799.28;8510256;27;20088;-72
2022/06/10 09:47:27;;;;;;;6.00;3.45;;;;;;;21.90;53.38;99803.34;8324280;28;20083;-72
2022/06/10 09:51:35;;;;;;;11.13;4.07;;;;;;;21.94;55.03;99798.75;8324110;28;20053;-73
2022/06/10 09:56:02;;;;;;;4.53;3.80;;;;;;;22.17;54.70;99802.25;8323956;28;20049;-72
2022/06/10 10:00:10;;;;;;;5.28;3.70;;;;;;;22.20;55.20;99796.03;8322811;28;20443;-73
2022/06/10 10:04:41;;;;;;;6.63;4.13;;;;;;;22.48;55.43;99794.84;8318787;28;20064;-72
2022/06/10 10:09:18;;;;;;;7.78;3.45;;;;;;;22.41;55.17;99800.25;8315625;28;20521;-72
2022/06/10 10:13:48;;;;;;;10.18;4.35;;;;;;;22.58;54.13;99794.19;8310892;28;20152;-73
2022/06/10 10:17:58;;;;;;;5.10;4.07;;;;;;;22.66;52.07;99793.13;8287279;28;20133;-77
2022/06/10 10:22:33;;;;;;;6.13;3.63;;;;;;;22.76;51.68;99789.75;8317675;28;20044;-76
2022/06/10 10:26:38;;;;;;;3.40;2.40;;;;;;;22.82;50.79;99782.75;8385040;28;20483;-77
2022/06/10 10:30:44;;;;;;;6.13;2.60;;;;;;;22.94;50.05;99790.78;8389949;28;20048;-77
2022/06/10 10:34:50;;;;;;;5.57;2.30;;;;;;;22.92;48.75;99793.13;8320629;28;20052;-77
2022/06/10 10:38:52;;;;;;;3.85;2.00;;;;;;;23.07;49.13;99800.38;8378804;28;20553;-76
2022/06/10 10:42:55;;;;;;;3.33;1.90;;;;;;;23.09;48.10;99792.53;8397748;28;20052;-77
2022/06/10 10:47:17;;;;;;;3.78;1.80;;;;;;;23.24;47.83;99792.69;8390437;28;20043;-76
2022/06/10 10:51:22;;;;;;;5.60;2.65;;;;;;;23.35;47.45;99782.59;8389996;28;20059;-76
2022/06/10 10:55:35;;;;;;;5.03;2.30;;;;;;;23.34;49.20;99792.03;8446369;28;20056;-77
2022/06/10 10:59:38;;;;;;;3.72;2.15;;;;;;;23.38;47.07;99787.34;8458269;28;20051;-76
2022/06/10 11:03:51;;;;;;;4.78;2.00;;;;;;;23.46;47.73;99789.03;8462816;28;20725;-76
2022/06/10 11:08:16;;;;;;;4.53;1.70;;;;;;;23.58;47.29;99790.75;8466741;28;20050;-77
2022/06/10 11:12:20;;;;;;;13.00;2.20;;;;;;;23.72;48.25;99797.19;8463841;28;20074;-77
2022/06/10 11:16:25;;;;;;;3.72;2.00;;;;;;;23.80;46.75;99793.28;8467379;28;20058;-77
2022/06/10 11:20:34;;;;;;;3.20;1.70;;;;;;;23.75;47.11;99785.38;8479387;27;20098;-78
2022/06/10 11:24:45;;;;;;;2.60;1.70;;;;;;;23.50;46.77;99795.38;8480734;27;20675;-77
2022/06/10 11:28:46;;;;;;;2.58;1.60;;;;;;;23.86;46.30;99786.25;8506079;27;20504;-76
2022/06/10 11:32:53;;;;;;;4.35;1.88;;;;;;;23.86;44.91;99786.25;8509883;27;20046;-78
2022/06/10 11:36:55;;;;;;;3.42;1.48;;;;;;;23.91;46.04;99783.16;8525319;27;20647;-77
2022/06/10 11:40:59;;;;;;;5.35;1.40;;;;;;;24.12;44.17;99785.28;8506753;27;20039;-78
2022/06/10 11:45:16;;;;;;;2.97;1.60;;;;;;;24.10;44.05;99773.06;8444480;27;20046;-78
2022/06/10 11:49:28;;;;;;;5.22;1.52;;;;;;;24.13;43.66;99777.81;8494793;27;20074;-78
2022/06/10 11:53:51;;;;;;;3.95;1.10;;;;;;;24.23;43.33;99783.44;8530914;27;20042;-77
2022/06/10 12:02:49;;;;;;;3.28;1.42;;;;;;;24.43;42.73;99781.19;8529349;27;20080;-77
2022/06/10 12:07:05;;;;;;;2.35;1.10;;;;;;;24.60;42.04;99769.47;8322852;28;20044;-77
2022/06/10 12:11:58;;;;;;;3.00;1.10;;;;;;;24.77;40.75;99763.25;8351375;28;20044;-76
2022/06/10 12:15:59;;;;;;;2.53;1.00;;;;;;;24.92;40.49;99768.84;8285050;28;20070;-77
2022/06/10 12:20:19;;;;;;;2.28;0.85;;;;;;;25.06;37.25;99774.44;8289595;28;20555;-76
2022/06/10 12:24:20;;;;;;;1.35;0.85;;;;;;;24.83;36.69;99778.25;8276865;28;20598;-77
2022/06/10 12:28:32;;;;;;;2.08;0.90;;;;;;;24.99;37.27;99779.94;8262071;28;20058;-76
2022/06/10 12:32:39;;;;;;;4.78;1.20;;;;;;;25.22;38.00;99783.19;8286044;28;20054;-77
2022/06/10 12:36:46;;;;;;;2.00;1.00;;;;;;;25.22;38.10;99777.66;8292922;28;20058;-77
2022/06/10 12:41:01;;;;;;;2.13;1.08;;;;;;;25.23;38.99;99779.22;8276564;28;20046;-77
2022/06/10 12:45:04;;;;;;;4.18;1.13;;;;;;;25.11;37.66;99772.09;8411896;28;20110;-77
2022/06/10 12:49:30;;;;;;;3.38;1.05;;;;;;;25.33;38.01;99778.44;8418011;28;20123;-77
2022/06/10 12:53:57;;;;;;;4.15;0.82;;;;;;;25.55;37.67;99774.56;8416097;28;20418;-77
2022/06/10 12:57:59;;;;;;;2.83;0.97;;;;;;;25.61;37.03;99784.06;8405518;28;20064;-77
2022/06/10 13:02:02;;;;;;;2.42;0.90;;;;;;;25.52;37.45;99775.34;8424153;28;20056;-77
2022/06/10 13:06:05;;;;;;;4.93;1.40;;;;;;;25.69;37.64;99773.03;8420713;28;20447;-77
2022/06/10 13:10:25;;;;;;;4.80;1.00;;;;;;;25.57;37.11;99772.22;8424832;28;20571;-76
2022/06/10 13:14:33;;;;;;;4.18;1.00;;;;;;;25.49;38.27;99765.06;8423855;28;20048;-77
2022/06/10 13:18:35;;;;;;;2.40;1.10;;;;;;;25.51;36.81;99772.97;8422499;28;20054;-77
2022/06/10 13:22:40;;;;;;;2.20;0.75;;;;;;;25.75;36.83;99777.00;8424372;28;20051;-76
2022/06/10 13:26:42;;;;;;;2.10;0.90;;;;;;;25.75;35.33;99766.69;8424576;28;20085;-76
2022/06/10 13:30:43;;;;;;;2.25;1.05;;;;;;;25.79;36.18;99766.72;8470002;27;20122;-77
2022/06/10 13:34:53;;;;;;;5.13;0.90;;;;;;;26.77;35.65;99762.22;8491632;27;20047;-78
2022/06/10 13:38:56;;;;;;;3.05;0.90;;;;;;;28.10;32.79;99773.69;8488125;27;20058;-78
2022/06/10 13:43:01;;;;;;;2.33;0.93;;;;;;;28.95;31.08;99761.72;8490595;28;20043;-77
2022/06/10 13:47:31;;;;;;;2.58;0.90;;;;;;;30.15;29.87;99769.50;8490944;28;20484;-78
2022/06/10 13:51:42;;;;;;;3.17;0.90;;;;;;;31.10;27.62;99772.44;8490305;28;20051;-78
2022/06/10 13:55:52;;;;;;;2.92;1.00;;;;;;;32.10;27.89;99766.13;8487270;28;20062;-82
2022/06/10 14:00:03;;;;;;;6.20;1.30;;;;;;;32.64;26.60;99768.28;8489423;27;20096;-78
2022/06/10 14:04:07;;;;;;;4.50;1.00;;;;;;;33.46;26.96;99766.72;8455175;28;20058;-78
2022/06/10 14:08:16;;;;;;;4.57;1.05;;;;;;;33.62;26.56;99766.59;8449142;28;20047;-76
2022/06/10 14:12:23;;;;;;;2.22;0.90;;;;;;;32.73;27.42;99757.25;8492581;27;20135;-76
2022/06/10 14:16:25;;;;;;;2.95;0.70;;;;;;;33.01;25.58;99756.44;8499079;27;20050;-75
2022/06/10 14:20:34;;;;;;;4.13;1.00;;;;;;;34.15;24.03;99752.84;8512820;27;20392;-78
2022/06/10 14:24:35;;;;;;;2.10;0.85;;;;;;;34.24;24.83;99761.38;8531869;27;20043;-76
2022/06/10 14:28:58;;;;;;;2.55;1.00;;;;;;;34.53;24.47;99761.91;8514638;27;20047;-76
2022/06/10 14:33:02;;;;;;;2.35;0.98;;;;;;;35.65;24.53;99771.31;8452794;28;20059;-75
2022/06/10 14:37:23;;;;;;;1.50;0.80;;;;;;;35.87;23.04;99760.78;8420115;28;20039;-75
2022/06/10 14:41:24;;;;;;;5.07;1.20;;;;;;;36.05;22.44;99760.84;8454677;28;20050;-76
2022/06/10 14:45:28;;;;;;;5.22;1.20;;;;;;;35.53;23.54;99754.09;8440824;28;20036;-76
2022/06/10 14:49:38;;;;;;;2.28;1.20;;;;;;;35.29;22.99;99755.88;8459344;28;20048;-76
2022/06/10 14:53:41;;;;;;;2.58;1.00;;;;;;;34.47;23.83;99752.53;8457489;28;20050;-75
2022/06/10 14:57:53;;;;;;;3.13;1.35;;;;;;;34.74;23.45;99744.31;8456317;28;20412;-76
2022/06/10 15:01:56;;;;;;;5.15;1.13;;;;;;;34.47;23.00;99752.53;8453272;28;20051;-76
2022/06/10 15:06:19;;;;;;;2.95;0.90;;;;;;;33.99;24.17;99753.78;8455928;28;20040;-77
2022/06/10 15:10:20;;;;;;;2.80;1.10;;;;;;;33.64;24.36;99746.53;8489486;27;20069;-76
2022/06/10 15:14:22;;;;;;;5.00;1.00;;;;;;;33.67;24.35;99746.41;8523842;27;20464;-76
2022/06/10 15:18:23;;;;;;;5.82;1.30;;;;;;;32.39;27.16;99749.41;8524250;27;20059;-76
2022/06/10 15:22:39;;;;;;;5.45;1.20;;;;;;;32.51;25.33;99745.09;8522142;27;20049;-77
2022/06/10 15:26:41;;;;;;;3.45;1.00;;;;;;;32.47;25.39;99738.81;8524885;27;20410;-76
2022/06/10 15:30:44;;;;;;;3.83;1.20;;;;;;;32.40;25.59;99747.41;8475633;27;20537;-76
2022/06/10 15:43:39;;;;;;;4.25;1.20;;;;;;;30.55;27.77;99726.56;8511870;27;20070;-80
2022/06/10 15:47:40;;;;;;;3.60;1.10;;;;;;;29.92;28.19;99727.75;8527365;27;20540;-76
2022/06/10 15:51:46;;;;;;;5.30;1.45;;;;;;;29.08;29.04;99725.03;8520395;27;20088;-75
2022/06/10 16:00:28;;;;;;;10.00;1.67;;;;;;;28.10;30.99;99723.72;8525615;27;20058;-76
2022/06/10 16:04:30;;;;;;;1.90;1.10;;;;;;;27.74;30.74;99733.56;8513675;27;20408;-76
2022/06/10 16:08:32;;;;;;;3.08;1.10;;;;;;;27.49;31.08;99732.94;8508276;27;20533;-77
2022/06/10 16:16:52;;;;;;;2.20;0.95;;;;;;;27.00;31.44;99729.28;8424558;28;20685;-74
2022/06/10 16:20:56;;;;;;;3.42;0.98;;;;;;;27.10;31.57;99733.97;8407149;28;20063;-74
2022/06/10 16:24:56;;;;;;;3.65;1.00;;;;;;;26.87;31.68;99730.91;8412421;28;20474;-74
2022/06/10 16:29:25;;;;;;;5.20;1.00;;;;;;;26.90;30.90;99732.91;8423780;28;20090;-74
2022/06/10 16:33:27;;;;;;;2.08;0.98;;;;;;;27.16;31.04;99724.06;8420273;28;20047;-74
2022/06/10 16:37:29;;;;;;;7.75;1.20;;;;;;;28.82;28.72;99718.19;8388930;28;20150;-73
2022/06/10 16:41:39;;;;;;;2.33;0.95;;;;;;;29.71;26.41;99729.66;8419423;28;20040;-73
2022/06/10 16:45:41;;;;;;;7.13;1.23;;;;;;;30.86;25.56;99729.13;8445355;27;20523;-73
2022/06/10 16:49:42;;;;;;;3.22;1.25;;;;;;;32.32;23.89;99737.63;8494120;27;20484;-73
2022/06/10 16:53:45;;;;;;;1.92;1.10;;;;;;;33.17;23.19;99735.22;8520827;27;20055;-73
2022/06/10 16:57:51;;;;;;;3.05;1.05;;;;;;;30.41;25.75;99743.53;8529371;27;20049;-74
2022/06/10 17:02:00;;;;;;;1.88;0.90;;;;;;;28.74;28.63;99744.50;8529127;27;20051;-74
2022/06/10 17:06:01;;;;;;;3.00;1.00;;;;;;;27.36;30.28;99751.25;8513262;27;20043;-74
2022/06/10 17:10:03;;;;;;;4.25;1.42;;;;;;;26.52;31.16;99747.66;8508765;27;20138;-73
2022/06/10 17:14:06;;;;;;;4.00;1.08;;;;;;;26.12;31.88;99752.44;8471339;27;20081;-73
2022/06/10 17:18:14;;;;;;;2.72;1.00;;;;;;;25.72;32.42;99758.41;8514680;27;20051;-74
2022/06/10 17:22:16;;;;;;;2.80;1.10;;;;;;;25.33;33.01;99750.81;8508196;27;20139;-72
2022/06/10 17:26:41;;;;;;;4.38;1.10;;;;;;;24.98;33.58;99759.00;8489101;27;20052;-72
2022/06/10 17:31:04;;;;;;;6.63;1.10;;;;;;;24.71;33.89;99759.25;8524174;27;20130;-73
2022/06/10 17:35:14;;;;;;;2.13;1.20;;;;;;;24.46;34.96;99763.06;8497905;27;20034;-72
2022/06/10 17:39:17;;;;;;;5.40;1.17;;;;;;;24.23;34.97;99760.56;8528649;27;20396;-72
2022/06/10 17:43:18;;;;;;;3.67;1.20;;;;;;;23.98;35.91;99766.66;8510007;27;20049;-72
2022/06/10 17:47:24;;;;;;;3.03;1.30;;;;;;;23.81;36.06;99772.03;8508298;27;20054;-72
2022/06/10 17:51:28;;;;;;;2.70;1.40;;;;;;;23.69;36.87;99759.31;8518063;27;20055;-72
2022/06/10 17:55:29;;;;;;;1.25;0.90;;;;;;;23.66;36.94;99765.59;8519348;27;20044;-72
2022/06/10 17:59:30;;;;;;;4.65;1.30;;;;;;;23.51;37.88;99774.91;8511678;27;20053;-72
2022/06/10 18:03:34;;;;;;;2.38;1.10;;;;;;;23.28;37.78;99771.47;8541980;27;20093;-72
2022/06/10 18:07:35;;;;;;;3.13;1.20;;;;;;;23.13;38.23;99774.09;8504623;27;20043;-73
2022/06/10 18:11:36;;;;;;;4.00;1.27;;;;;;;22.98;38.12;99785.31;8523146;27;20053;-73
2022/06/10 18:15:37;;;;;;;2.60;1.20;;;;;;;22.81;38.15;99781.16;8541703;27;20055;-72
2022/06/10 18:19:39;;;;;;;3.15;1.08;;;;;;;22.58;38.89;99788.69;8541408;27;20091;-72
2022/06/10 18:23:44;;;;;;;5.40;1.20;;;;;;;22.48;39.42;99783.81;8541781;27;20409;-72
2022/06/10 18:27:46;;;;;;;2.50;1.20;;;;;;;22.35;40.61;99785.22;8541300;27;20525;-72
2022/06/10 18:31:49;;;;;;;2.80;1.40;;;;;;;22.11;41.48;99789.97;8500697;27;20042;-73
2022/06/10 18:35:52;;;;;;;3.88;1.00;;;;;;;21.87;41.99;99787.59;8515438;27;20403;-72
2022/06/10 18:39:53;;;;;;;4.95;1.38;;;;;;;21.71;43.24;99786.91;8504504;27;20047;-72
2022/06/10 18:43:54;;;;;;;3.42;1.65;;;;;;;21.46;44.60;99790.03;8482119;27;20396;-75
2022/06/10 18:48:00;;;;;;;6.40;1.38;;;;;;;21.20;45.87;99787.16;8525699;27;20049;-72
2022/06/10 18:52:02;;;;;;;3.75;1.20;;;;;;;20.92;47.07;99808.53;8539814;27;20042;-74
2022/06/10 18:56:05;;;;;;;1.25;1.00;;;;;;;20.68;47.61;99806.81;8521001;27;20400;-73
2022/06/10 19:00:06;;;;;;;4.95;2.38;;;;;;;20.40;48.17;99809.75;8529329;27;20541;-73
2022/06/10 19:04:17;;;;;;;8.65;3.60;;;;;;;20.16;48.53;99818.94;8483871;27;20038;-73
2022/06/10 19:08:18;;;;;;;14.55;5.53;;;;;;;19.87;49.79;99824.06;8512148;27;20055;-73
2022/06/10 19:12:20;;;;;;;23.02;9.85;;;;;;;19.68;50.32;99822.81;8507127;27;20054;-73
2022/06/10 19:16:27;;;;;;;23.48;8.95;;;;;;;19.48;51.15;99834.78;8513105;27;20444;-72
2022/06/10 19:20:35;;;;;;;17.77;7.87;;;;;;;19.27;52.33;99850.59;8510588;27;20057;-73
2022/06/10 19:24:38;;;;;;;22.90;12.85;;;;;;;19.07;53.10;99862.53;8515598;27;20049;-72
2022/06/10 19:28:40;;;;;;;23.13;11.68;;;;;;;18.89;53.72;99862.81;8517176;27;20138;-72
2022/06/10 19:32:44;;;;;;;23.35;10.38;;;;;;;18.72;55.06;99867.72;8525881;27;20061;-72
2022/06/10 19:36:45;;;;;;;24.38;11.50;;;;;;;18.50;55.54;99866.28;8513072;27;20054;-71
2022/06/10 19:40:48;;;;;;;32.55;13.77;;;;;;;18.33;56.01;99871.97;8496929;27;20047;-72
2022/06/10 19:44:50;;;;;;;27.15;11.93;;;;;;;18.18;56.23;99869.91;8529404;27;20038;-72
2022/06/10 19:48:55;;;;;;;21.27;10.68;;;;;;;18.03;56.54;99880.34;8495786;27;20129;-72
2022/06/10 19:53:01;;;;;;;20.25;10.68;;;;;;;17.85;57.50;99878.97;8525053;27;20077;-73
2022/06/10 19:57:02;;;;;;;19.90;8.45;;;;;;;17.72;57.81;99877.31;8525854;27;20051;-72
2022/06/10 20:01:12;;;;;;;17.75;7.63;;;;;;;17.56;58.00;99876.31;8531284;27;20509;-72